Time;durP1;ratioP1;P1;durP2;ratioP2;P2;SDS_P1;SDS_P2;PMS_P1;PMS_P2;Temp;Humidity;BMP_temperature;BMP_pressure;BME280_temperature;BME280_humidity;BME280_pressure;Samples;Min_cycle;Max_cycle;Signal;HPM_P1;HPM_P2
2022/12/14 00:02:28;;;;;;;15.73;11.53;;;0.00;90.70;;;;;;6179641;28;20553;-62
2022/12/14 00:05:31;;;;;;;14.50;10.70;;;-0.10;90.80;;;;;;6169946;28;20533;-63
2022/12/14 00:08:36;;;;;;;11.60;9.70;;;-0.10;91.00;;;;;;6155283;28;20479;-63
2022/12/14 00:11:44;;;;;;;9.80;8.73;;;-0.20;91.20;;;;;;6155197;28;20471;-62
2022/12/14 00:14:47;;;;;;;15.17;11.40;;;-0.10;91.30;;;;;;6154717;28;20493;-63
2022/12/14 00:17:50;;;;;;;10.67;9.17;;;0.00;91.20;;;;;;6155046;28;20967;-63
2022/12/14 00:20:53;;;;;;;12.17;9.53;;;0.10;91.10;;;;;;6146163;28;20474;-66
2022/12/14 00:23:59;;;;;;;12.10;10.17;;;0.20;90.90;;;;;;6123573;28;20491;-65
2022/12/14 00:27:02;;;;;;;13.93;9.87;;;0.30;90.80;;;;;;6161516;28;20489;-65
2022/12/14 00:30:06;;;;;;;13.33;10.37;;;0.30;90.70;;;;;;6147595;28;20506;-65
2022/12/14 00:33:09;;;;;;;13.30;9.90;;;0.40;90.50;;;;;;6150598;28;20486;-64
2022/12/14 00:36:13;;;;;;;12.07;9.97;;;0.40;90.40;;;;;;6156855;28;20485;-63
2022/12/14 00:39:18;;;;;;;14.80;9.77;;;0.40;90.30;;;;;;6154385;28;20474;-63
2022/12/14 00:42:21;;;;;;;12.00;10.40;;;0.50;90.10;;;;;;6154475;28;20467;-61
2022/12/14 00:45:24;;;;;;;14.43;10.77;;;0.50;89.80;;;;;;6154380;28;20482;-61
2022/12/14 00:48:27;;;;;;;16.50;10.47;;;0.50;90.40;;;;;;6154583;28;20593;-63
2022/12/14 00:51:31;;;;;;;15.13;10.30;;;0.50;89.90;;;;;;6153895;28;20493;-64
2022/12/14 00:54:35;;;;;;;13.73;11.23;;;0.50;90.00;;;;;;6154539;28;20592;-64
2022/12/14 00:57:39;;;;;;;15.03;11.43;;;0.50;90.00;;;;;;6177789;28;20997;-60
2022/12/14 01:00:44;;;;;;;13.97;10.53;;;0.50;89.90;;;;;;6177661;28;20782;-63
2022/12/14 01:03:47;;;;;;;10.57;9.47;;;0.50;89.90;;;;;;6177703;28;20504;-64
2022/12/14 01:06:52;;;;;;;16.03;11.80;;;0.50;90.10;;;;;;6157566;28;20611;-64
2022/12/14 01:09:56;;;;;;;14.57;11.27;;;0.50;90.00;;;;;;6153453;28;20483;-62
2022/12/14 01:12:59;;;;;;;12.10;10.23;;;0.50;90.00;;;;;;6153502;28;20475;-61
2022/12/14 01:16:04;;;;;;;13.30;10.53;;;0.60;90.10;;;;;;6153657;28;20860;-61
2022/12/14 01:19:08;;;;;;;16.40;10.97;;;0.60;90.10;;;;;;6153095;28;20845;-61
2022/12/14 01:22:11;;;;;;;14.10;9.53;;;0.60;90.00;;;;;;6153141;28;20475;-64
2022/12/14 01:25:15;;;;;;;11.80;10.33;;;0.50;90.30;;;;;;6153309;28;20475;-64
2022/12/14 01:28:20;;;;;;;13.40;10.67;;;0.60;90.70;;;;;;6149029;28;20482;-64
2022/12/14 01:31:25;;;;;;;14.70;10.33;;;0.60;90.70;;;;;;6152827;28;20570;-65
2022/12/14 01:34:28;;;;;;;12.17;9.53;;;0.60;90.70;;;;;;6148622;28;20530;-66
2022/12/14 01:37:32;;;;;;;13.83;9.90;;;0.60;90.30;;;;;;6142330;28;20451;-66
2022/12/14 01:40:36;;;;;;;13.67;9.50;;;0.70;90.40;;;;;;6142309;28;20431;-66
2022/12/14 01:43:46;;;;;;;12.40;10.57;;;0.60;90.10;;;;;;6141379;28;20478;-66
2022/12/14 01:46:57;;;;;;;11.60;10.40;;;0.60;90.00;;;;;;6140809;28;20501;-66
2022/12/14 01:50:04;;;;;;;13.50;9.70;;;0.50;90.20;;;;;;6140385;28;20955;-66
2022/12/14 01:53:11;;;;;;;12.40;10.20;;;0.40;90.30;;;;;;6143258;28;20479;-65
2022/12/14 01:56:16;;;;;;;17.73;10.37;;;0.40;90.40;;;;;;6146352;28;20777;-66
2022/12/14 01:59:26;;;;;;;12.00;9.73;;;0.20;90.60;;;;;;6138717;28;20483;-66
2022/12/14 02:02:31;;;;;;;13.67;10.67;;;0.10;91.00;;;;;;6142205;28;20474;-65
2022/12/14 02:05:36;;;;;;;15.47;11.30;;;0.10;91.10;;;;;;6141723;28;20472;-66
2022/12/14 02:08:42;;;;;;;12.27;10.33;;;0.10;91.00;;;;;;6150766;28;20964;-66
2022/12/14 02:11:50;;;;;;;16.07;11.63;;;0.30;91.10;;;;;;6152308;28;20561;-66
2022/12/14 02:14:54;;;;;;;12.73;10.27;;;0.20;91.00;;;;;;6152434;28;20538;-67
2022/12/14 02:17:57;;;;;;;14.30;10.83;;;0.30;91.10;;;;;;6152460;28;20482;-66
2022/12/14 02:21:18;;;;;;;13.07;10.57;;;0.40;91.00;;;;;;6152647;28;20992;-66
2022/12/14 02:24:55;;;;;;;14.10;10.63;;;0.40;90.90;;;;;;6152145;28;20484;-65
2022/12/14 02:28:23;;;;;;;14.10;10.67;;;0.50;90.70;;;;;;6152385;28;20478;-65
2022/12/14 02:31:36;;;;;;;14.37;10.63;;;0.50;90.70;;;;;;6151766;28;21098;-66
2022/12/14 02:34:52;;;;;;;12.30;10.80;;;0.60;90.60;;;;;;6151988;28;20892;-65
2022/12/14 02:38:07;;;;;;;12.03;10.17;;;0.60;90.30;;;;;;6152385;28;20537;-66
2022/12/14 02:41:17;;;;;;;11.27;9.57;;;0.60;90.30;;;;;;6152014;28;20471;-66
2022/12/14 02:44:30;;;;;;;14.53;9.83;;;0.50;90.50;;;;;;6152193;28;20479;-66
2022/12/14 02:47:39;;;;;;;15.37;10.23;;;0.50;90.70;;;;;;6137561;28;20491;-66
2022/12/14 02:50:49;;;;;;;17.73;11.70;;;0.50;90.70;;;;;;6140585;28;20475;-66
2022/12/14 02:54:00;;;;;;;14.80;11.23;;;0.60;90.70;;;;;;6130467;28;20872;-66
2022/12/14 02:57:10;;;;;;;13.27;10.83;;;0.60;90.50;;;;;;6171788;28;20478;-66
2022/12/14 03:00:14;;;;;;;19.53;11.63;;;0.60;90.30;;;;;;6176076;28;20470;-66
2022/12/14 03:03:19;;;;;;;15.00;11.13;;;0.70;90.40;;;;;;6175736;28;20486;-66
2022/12/14 03:06:29;;;;;;;14.27;11.60;;;0.70;90.40;;;;;;6160118;28;20479;-66
2022/12/14 03:09:33;;;;;;;14.47;11.63;;;0.70;90.00;;;;;;6151882;28;20475;-66
2022/12/14 03:12:40;;;;;;;15.17;10.30;;;0.60;90.10;;;;;;6151479;28;20483;-65
2022/12/14 03:15:47;;;;;;;17.13;10.40;;;0.60;90.30;;;;;;6151604;28;20479;-66
2022/12/14 03:18:56;;;;;;;13.50;10.73;;;0.70;90.30;;;;;;6151708;28;20467;-66
2022/12/14 03:22:04;;;;;;;14.33;10.67;;;0.60;90.30;;;;;;6151707;28;20471;-66
2022/12/14 03:25:11;;;;;;;11.00;9.80;;;0.60;90.30;;;;;;6151312;28;20602;-66
2022/12/14 03:28:18;;;;;;;18.73;11.70;;;0.60;90.30;;;;;;6152733;28;20486;-66
2022/12/14 03:31:27;;;;;;;11.50;9.70;;;0.60;90.30;;;;;;6155875;28;20490;-66
2022/12/14 03:34:37;;;;;;;12.53;10.40;;;0.60;90.40;;;;;;6151775;28;20562;-67
2022/12/14 03:37:45;;;;;;;13.17;10.97;;;0.50;90.50;;;;;;6155787;28;20458;-67
2022/12/14 03:41:02;;;;;;;14.60;11.20;;;0.40;90.60;;;;;;6155716;28;20473;-66
2022/12/14 03:44:18;;;;;;;14.13;10.30;;;0.40;91.00;;;;;;6155272;28;20553;-66
2022/12/14 03:47:44;;;;;;;13.97;10.73;;;0.40;91.10;;;;;;6155830;28;20467;-66
2022/12/14 03:50:53;;;;;;;15.10;11.30;;;0.40;91.40;;;;;;6155731;28;20483;-66
2022/12/14 03:54:03;;;;;;;15.23;11.63;;;0.40;91.40;;;;;;6155131;28;20487;-66
2022/12/14 03:57:10;;;;;;;17.90;11.87;;;0.40;91.20;;;;;;6176661;28;20485;-67
2022/12/14 04:00:19;;;;;;;17.37;11.37;;;0.40;91.20;;;;;;6179184;28;20474;-66
2022/12/14 04:03:29;;;;;;;14.23;10.83;;;0.50;91.40;;;;;;6179339;28;20493;-66
2022/12/14 04:06:42;;;;;;;15.13;12.17;;;0.50;91.40;;;;;;6161748;28;20479;-66
2022/12/14 04:09:52;;;;;;;13.20;10.90;;;0.40;91.60;;;;;;6154941;28;20483;-67
2022/12/14 04:19:53;;;;;;;13.63;10.07;;;0.40;92.10;;;;;;6154591;28;20522;-66
2022/12/14 04:23:06;;;;;;;12.47;11.27;;;0.50;92.10;;;;;;6154911;28;20482;-65
2022/12/14 04:26:14;;;;;;;13.20;10.90;;;0.40;92.10;;;;;;6154959;28;20470;-66
2022/12/14 04:32:52;;;;;;;15.00;11.47;;;0.60;91.60;;;;;;6151504;28;21015;-65
2022/12/14 04:35:58;;;;;;;15.30;11.20;;;0.70;91.50;;;;;;6154563;28;20479;-60
2022/12/14 04:39:07;;;;;;;15.20;11.30;;;0.80;91.50;;;;;;6154140;28;20485;-60
2022/12/14 04:42:13;;;;;;;16.40;11.73;;;0.80;91.40;;;;;;6153733;28;20471;-60
2022/12/14 04:45:20;;;;;;;18.83;12.77;;;0.80;91.20;;;;;;6154349;28;20490;-60
2022/12/14 04:48:27;;;;;;;14.60;13.10;;;0.90;91.20;;;;;;6154242;28;20494;-60
2022/12/14 04:51:36;;;;;;;14.93;11.70;;;0.90;91.10;;;;;;6154133;28;20533;-60
2022/12/14 04:54:46;;;;;;;14.43;11.90;;;1.00;91.10;;;;;;6154919;28;20479;-60
2022/12/14 04:57:54;;;;;;;15.47;13.20;;;0.90;91.10;;;;;;6177797;28;20478;-60
2022/12/14 05:01:12;;;;;;;16.10;11.67;;;0.90;91.30;;;;;;6178091;28;21246;-60
2022/12/14 05:04:25;;;;;;;15.17;12.00;;;0.80;91.50;;;;;;6179686;28;20486;-60
2022/12/14 05:07:42;;;;;;;18.27;12.73;;;0.70;91.70;;;;;;6130677;28;20483;-59
2022/12/14 05:10:57;;;;;;;14.17;12.57;;;0.70;91.90;;;;;;6130106;28;20468;-60
2022/12/14 05:14:26;;;;;;;24.30;16.90;;;0.70;92.10;;;;;;6129556;28;20566;-60
2022/12/14 05:17:30;;;;;;;24.43;16.40;;;0.70;92.40;;;;;;6129952;28;20539;-60
2022/12/14 05:20:33;;;;;;;18.47;15.33;;;0.60;92.90;;;;;;6130209;28;20486;-60
2022/12/14 05:23:36;;;;;;;20.20;14.23;;;0.60;93.30;;;;;;6129556;28;20476;-60
2022/12/14 05:26:41;;;;;;;19.07;14.07;;;0.60;93.40;;;;;;6129350;28;21019;-60
2022/12/14 05:29:44;;;;;;;16.83;13.90;;;0.60;93.20;;;;;;6129561;28;20952;-60
2022/12/14 05:32:50;;;;;;;16.57;12.90;;;0.60;92.90;;;;;;6146464;28;20471;-59
2022/12/14 05:35:53;;;;;;;18.23;12.83;;;0.60;92.80;;;;;;6153231;28;20811;-60
2022/12/14 05:38:56;;;;;;;16.63;13.07;;;0.60;92.90;;;;;;6153234;28;20493;-61
2022/12/14 05:42:01;;;;;;;16.83;13.27;;;0.60;92.70;;;;;;6153062;28;20471;-60
2022/12/14 05:45:05;;;;;;;17.07;12.00;;;0.60;92.60;;;;;;6143924;28;20541;-60
2022/12/14 05:48:08;;;;;;;18.73;12.93;;;0.60;92.70;;;;;;6153230;28;20537;-60
2022/12/14 05:51:13;;;;;;;17.80;13.27;;;0.60;92.60;;;;;;6152857;28;20546;-60
2022/12/14 05:54:16;;;;;;;17.43;11.93;;;0.70;92.60;;;;;;6152780;28;20479;-60
2022/12/14 05:57:21;;;;;;;16.23;12.03;;;0.80;92.50;;;;;;6175278;28;20466;-60
2022/12/14 06:00:24;;;;;;;17.20;12.27;;;0.80;92.40;;;;;;6176614;28;20473;-60
2022/12/14 06:03:27;;;;;;;14.33;11.37;;;0.90;92.10;;;;;;6176899;28;20474;-60
2022/12/14 06:06:33;;;;;;;16.13;11.87;;;0.90;91.90;;;;;;6159428;28;20482;-60
2022/12/14 06:09:36;;;;;;;20.17;14.10;;;0.90;91.70;;;;;;6152904;28;20478;-60
2022/12/14 06:12:41;;;;;;;16.87;13.10;;;0.70;91.60;;;;;;6152157;28;20836;-60
2022/12/14 06:15:44;;;;;;;18.43;12.50;;;0.70;92.00;;;;;;6152993;28;20491;-60
2022/12/14 06:18:49;;;;;;;14.93;12.67;;;0.70;92.10;;;;;;6152443;28;20475;-60
2022/12/14 06:21:52;;;;;;;16.60;14.20;;;0.70;92.30;;;;;;6152722;28;20474;-60
2022/12/14 06:24:55;;;;;;;16.17;14.47;;;0.70;92.50;;;;;;6152199;28;20486;-60
2022/12/14 06:27:59;;;;;;;14.80;13.20;;;0.70;92.70;;;;;;6152265;28;20498;-60
2022/12/14 06:31:03;;;;;;;24.63;15.17;;;0.70;93.00;;;;;;6152376;28;20482;-60
2022/12/14 06:34:06;;;;;;;22.30;15.97;;;0.70;93.20;;;;;;6152033;28;20486;-61
2022/12/14 06:37:10;;;;;;;20.83;14.20;;;0.70;93.40;;;;;;6152295;28;20482;-60
2022/12/14 06:40:13;;;;;;;16.20;12.37;;;0.70;93.20;;;;;;6152188;28;20955;-61
2022/12/14 06:43:17;;;;;;;19.93;13.53;;;0.80;93.00;;;;;;6151450;28;20824;-61
2022/12/14 06:46:24;;;;;;;16.93;12.93;;;0.80;93.00;;;;;;6152429;28;20478;-61
2022/12/14 06:49:28;;;;;;;18.20;13.37;;;0.70;92.80;;;;;;6147817;28;20971;-61
2022/12/14 06:52:31;;;;;;;18.77;13.30;;;0.70;93.00;;;;;;6151719;28;20483;-61
2022/12/14 06:55:34;;;;;;;16.27;12.43;;;0.60;92.90;;;;;;6160463;28;20480;-61
2022/12/14 06:58:39;;;;;;;20.17;12.80;;;0.60;93.10;;;;;;6175450;28;20795;-60
2022/12/14 07:01:42;;;;;;;18.93;13.43;;;0.60;92.90;;;;;;6175765;28;20528;-61
2022/12/14 07:04:46;;;;;;;22.00;16.27;;;0.70;93.00;;;;;;6176262;28;20471;-61
2022/12/14 07:07:49;;;;;;;25.17;19.60;;;0.70;93.10;;;;;;6156658;28;20521;-61
2022/12/14 07:10:52;;;;;;;19.67;14.93;;;0.70;93.00;;;;;;6157051;28;20915;-61
2022/12/14 07:14:06;;;;;;;20.23;14.40;;;0.80;93.30;;;;;;6157066;28;20487;-61
2022/12/14 07:17:09;;;;;;;21.43;14.00;;;0.80;93.40;;;;;;6159196;28;20467;-60
2022/12/14 07:20:12;;;;;;;19.90;15.00;;;1.00;93.10;;;;;;6156594;28;20489;-60
2022/12/14 07:23:15;;;;;;;17.70;15.20;;;1.00;93.00;;;;;;6156040;28;20632;-61
2022/12/14 07:26:21;;;;;;;18.20;13.60;;;1.10;92.80;;;;;;6156479;28;20485;-61
2022/12/14 07:29:25;;;;;;;19.10;14.33;;;1.10;92.80;;;;;;6155967;28;20479;-61
2022/12/14 07:32:36;;;;;;;19.77;15.43;;;1.10;92.70;;;;;;6156178;28;20602;-61
2022/12/14 07:35:39;;;;;;;19.77;15.30;;;1.20;92.70;;;;;;6156050;28;20481;-61
2022/12/14 07:38:44;;;;;;;22.70;16.30;;;1.20;92.50;;;;;;6155877;28;20478;-61
2022/12/14 07:41:49;;;;;;;23.23;15.03;;;1.00;92.70;;;;;;6156012;28;20589;-61
2022/12/14 07:44:53;;;;;;;20.43;16.03;;;1.10;93.00;;;;;;6155776;28;20504;-61
2022/12/14 07:47:57;;;;;;;20.07;15.90;;;1.10;93.10;;;;;;6155662;28;20491;-61
2022/12/14 07:51:04;;;;;;;24.73;18.17;;;1.20;93.00;;;;;;6155803;28;20487;-61
2022/12/14 07:54:08;;;;;;;20.63;16.17;;;1.20;92.90;;;;;;6154990;28;20797;-61
2022/12/14 07:57:11;;;;;;;18.70;15.23;;;1.20;92.80;;;;;;6176791;28;20508;-61
2022/12/14 08:00:17;;;;;;;20.27;15.60;;;1.30;93.20;;;;;;6178938;28;20861;-61
2022/12/14 08:03:20;;;;;;;21.23;15.80;;;1.40;92.70;;;;;;6178893;28;20477;-61
2022/12/14 08:06:25;;;;;;;17.83;14.00;;;1.40;92.80;;;;;;6163245;28;20551;-61
2022/12/14 08:09:28;;;;;;;19.20;14.70;;;1.40;92.70;;;;;;6154955;28;20490;-61
2022/12/14 08:12:31;;;;;;;20.30;14.30;;;1.30;92.70;;;;;;6154555;28;20483;-61
2022/12/14 08:15:38;;;;;;;17.67;14.80;;;1.30;93.00;;;;;;6154355;28;20482;-61
2022/12/14 08:18:42;;;;;;;25.30;16.03;;;1.30;93.20;;;;;;6154995;28;20485;-61
2022/12/14 08:21:45;;;;;;;25.03;15.43;;;1.30;93.20;;;;;;6154765;28;20486;-61
2022/12/14 08:24:48;;;;;;;22.17;15.27;;;1.30;93.20;;;;;;6154583;28;20849;-61
2022/12/14 08:27:51;;;;;;;23.30;16.17;;;1.40;93.70;;;;;;6154509;28;20475;-60
2022/12/14 08:30:56;;;;;;;23.93;16.23;;;1.60;93.60;;;;;;6154382;28;20479;-60
2022/12/14 08:34:01;;;;;;;21.73;15.23;;;1.90;92.80;;;;;;6154215;28;20487;-60
2022/12/14 08:37:04;;;;;;;20.27;16.63;;;2.30;92.90;;;;;;6154446;28;20486;-61
2022/12/14 08:40:08;;;;;;;21.73;15.03;;;2.70;91.90;;;;;;6154203;28;20525;-61
2022/12/14 08:43:11;;;;;;;20.83;15.63;;;3.00;91.20;;;;;;6154031;28;20553;-61
2022/12/14 08:46:16;;;;;;;20.93;16.77;;;3.30;90.60;;;;;;6154011;28;20485;-60
2022/12/14 08:49:19;;;;;;;21.70;15.70;;;3.40;89.90;;;;;;6153840;28;20548;-59
2022/12/14 08:52:22;;;;;;;21.10;16.47;;;3.60;89.50;;;;;;6153928;28;20888;-59
2022/12/14 08:55:26;;;;;;;23.23;18.47;;;3.60;88.50;;;;;;6161276;28;20486;-59
2022/12/14 08:58:35;;;;;;;26.23;19.33;;;3.40;88.20;;;;;;6156905;28;20475;-59
2022/12/14 09:01:40;;;;;;;20.73;17.10;;;3.40;88.40;;;;;;6138136;28;20463;-59
2022/12/14 09:04:44;;;;;;;23.20;17.47;;;3.40;88.40;;;;;;6139760;28;20458;-59
2022/12/14 09:07:47;;;;;;;23.47;19.80;;;3.40;87.90;;;;;;6141127;28;20816;-59
2022/12/14 09:10:51;;;;;;;22.80;18.00;;;3.40;86.80;;;;;;6145656;28;20452;-59
2022/12/14 09:13:57;;;;;;;24.13;18.70;;;3.20;86.80;;;;;;6139973;28;20475;-59
2022/12/14 09:17:02;;;;;;;19.60;17.30;;;3.20;87.60;;;;;;6141607;28;20968;-59
2022/12/14 09:20:06;;;;;;;23.07;17.80;;;3.10;87.80;;;;;;6142390;28;20488;-59
2022/12/14 09:23:09;;;;;;;28.37;19.00;;;3.10;87.90;;;;;;6140279;28;20475;-59
2022/12/14 09:26:14;;;;;;;23.00;17.37;;;3.10;87.70;;;;;;6140972;28;20543;-59
2022/12/14 09:29:18;;;;;;;24.90;17.40;;;3.30;86.80;;;;;;6143113;28;20472;-59
2022/12/14 09:32:22;;;;;;;21.43;16.77;;;3.40;86.40;;;;;;6142432;28;20475;-59
2022/12/14 09:35:25;;;;;;;20.23;16.23;;;3.30;85.70;;;;;;6167249;28;20467;-59
2022/12/14 09:38:31;;;;;;;21.37;17.97;;;3.30;85.30;;;;;;6148203;28;20472;-59
2022/12/14 09:41:50;;;;;;;22.17;16.00;;;3.50;84.60;;;;;;6157424;28;21002;-59
2022/12/14 09:45:03;;;;;;;24.03;17.77;;;3.60;83.30;;;;;;6156582;28;20559;-59
2022/12/14 09:48:15;;;;;;;24.07;17.37;;;3.60;83.50;;;;;;6156122;28;20538;-59
2022/12/14 09:51:22;;;;;;;22.70;16.57;;;3.70;83.70;;;;;;6156646;28;20983;-59
2022/12/14 09:54:28;;;;;;;20.47;16.83;;;3.80;83.10;;;;;;6155777;28;20490;-59
2022/12/14 09:57:37;;;;;;;20.07;17.00;;;3.90;82.60;;;;;;6154362;28;20474;-58
2022/12/14 10:00:44;;;;;;;19.43;16.63;;;4.10;81.70;;;;;;6149571;28;20471;-59
2022/12/14 10:04:05;;;;;;;25.07;19.70;;;4.40;81.70;;;;;;6153372;28;20554;-59
2022/12/14 10:07:17;;;;;;;28.03;19.07;;;4.70;80.60;;;;;;6131315;28;21048;-59
2022/12/14 10:10:26;;;;;;;24.70;18.27;;;4.90;79.00;;;;;;6129379;28;20834;-61
2022/12/14 10:13:40;;;;;;;22.87;16.00;;;4.90;77.70;;;;;;6128722;28;20479;-59
2022/12/14 10:16:52;;;;;;;25.00;17.73;;;5.10;78.00;;;;;;6129342;28;20737;-59
2022/12/14 10:20:03;;;;;;;22.80;18.53;;;5.20;76.80;;;;;;6132852;28;20557;-60
2022/12/14 10:23:13;;;;;;;23.77;17.63;;;5.20;75.80;;;;;;6130393;28;20857;-59
2022/12/14 10:26:33;;;;;;;29.53;21.83;;;4.90;76.40;;;;;;6128113;28;20475;-60
2022/12/14 10:29:41;;;;;;;21.00;18.10;;;4.90;76.20;;;;;;6128113;28;20479;-59
2022/12/14 10:32:48;;;;;;;22.43;19.27;;;5.00;76.70;;;;;;6145029;28;20806;-59
2022/12/14 10:35:55;;;;;;;23.20;17.53;;;4.90;76.60;;;;;;6152103;28;20478;-59
2022/12/14 10:39:00;;;;;;;24.43;17.53;;;4.80;76.00;;;;;;6154199;28;20478;-59
2022/12/14 10:42:15;;;;;;;24.80;17.90;;;5.00;76.10;;;;;;6156654;28;20569;-60
2022/12/14 10:45:27;;;;;;;21.60;16.70;;;5.10;76.20;;;;;;6156820;28;20545;-60
2022/12/14 10:48:51;;;;;;;22.83;17.70;;;5.10;75.70;;;;;;6156712;28;20478;-60
2022/12/14 10:52:02;;;;;;;28.60;19.20;;;4.50;76.20;;;;;;6156314;28;20840;-60
2022/12/14 10:55:13;;;;;;;29.88;22.90;;;4.60;77.10;;;;;;6160808;28;20954;-60
2022/12/14 10:58:16;;;;;;;26.80;24.00;;;4.80;77.00;;;;;;6178663;28;20446;-61
2022/12/14 11:01:20;;;;;;;24.30;20.50;;;5.20;76.70;;;;;;6156788;28;20297;-61
2022/12/14 11:04:30;;;;;;;25.20;20.50;;;5.60;74.60;;;;;;6155830;28;20483;-60
2022/12/14 11:07:41;;;;;;;20.73;16.90;;;5.60;73.30;;;;;;6126273;28;21022;-60
2022/12/14 11:10:44;;;;;;;24.80;17.80;;;5.80;73.00;;;;;;6156312;28;20447;-60
2022/12/14 11:13:53;;;;;;;22.43;18.50;;;6.20;72.20;;;;;;6155906;28;20487;-61
2022/12/14 11:16:56;;;;;;;24.13;18.23;;;8.30;69.20;;;;;;6156131;28;20481;-60
2022/12/14 11:20:19;;;;;;;23.47;18.27;;;10.30;59.20;;;;;;6155671;28;20979;-60
2022/12/14 11:23:26;;;;;;;25.80;21.30;;;10.20;55.40;;;;;;6155770;28;20807;-61
2022/12/14 11:26:34;;;;;;;25.50;20.80;;;9.60;56.20;;;;;;6155894;28;20601;-60
2022/12/14 11:29:39;;;;;;;25.93;20.57;;;7.90;57.30;;;;;;6155809;28;20563;-61
2022/12/14 11:32:47;;;;;;;25.53;20.00;;;7.90;59.40;;;;;;6155920;28;20490;-61
2022/12/14 11:35:51;;;;;;;21.73;17.43;;;9.20;58.80;;;;;;6131381;28;20790;-61
2022/12/14 11:38:56;;;;;;;22.90;17.67;;;10.00;54.40;;;;;;6136841;28;20474;-61
2022/12/14 11:42:02;;;;;;;21.20;18.13;;;10.40;52.90;;;;;;6155599;28;20475;-61
2022/12/14 11:45:27;;;;;;;21.70;18.83;;;11.10;51.00;;;;;;6155451;28;20490;-60
2022/12/14 11:48:30;;;;;;;21.70;19.43;;;11.20;48.70;;;;;;6156653;28;20479;-60
2022/12/14 11:51:34;;;;;;;20.43;18.23;;;12.40;47.70;;;;;;6155288;28;20485;-60
2022/12/14 11:54:41;;;;;;;20.13;18.00;;;14.10;44.40;;;;;;6155198;28;20487;-61
2022/12/14 11:57:54;;;;;;;20.63;18.47;;;14.30;40.90;;;;;;6155053;28;20479;-61
2022/12/14 12:01:02;;;;;;;21.67;18.60;;;13.60;40.70;;;;;;6154800;28;20496;-59
2022/12/14 12:04:12;;;;;;;21.93;19.60;;;13.10;41.50;;;;;;6155105;28;20514;-60
2022/12/14 12:07:30;;;;;;;18.53;16.80;;;13.60;41.60;;;;;;6154923;28;20480;-59
2022/12/14 12:10:41;;;;;;;20.33;18.30;;;14.60;40.20;;;;;;6146489;28;20478;-59
2022/12/14 12:13:47;;;;;;;21.40;18.83;;;15.30;37.80;;;;;;6154860;28;20463;-59
2022/12/14 12:16:52;;;;;;;20.10;18.00;;;14.50;36.20;;;;;;6155021;28;20423;-60
2022/12/14 12:19:56;;;;;;;20.20;17.87;;;12.80;37.80;;;;;;6154540;28;20463;-59
2022/12/14 12:23:04;;;;;;;21.67;18.80;;;11.90;40.50;;;;;;6154718;28;20489;-58
2022/12/14 12:26:16;;;;;;;18.97;16.90;;;11.30;40.90;;;;;;6154393;28;20485;-59
2022/12/14 12:29:25;;;;;;;21.37;17.57;;;10.40;42.30;;;;;;6154711;28;20491;-59
2022/12/14 12:32:34;;;;;;;19.10;17.10;;;10.20;43.40;;;;;;6149025;28;20565;-59
2022/12/14 12:35:44;;;;;;;22.50;17.80;;;9.90;44.70;;;;;;6142968;28;20479;-58
2022/12/14 12:38:59;;;;;;;23.53;18.60;;;9.40;46.20;;;;;;6142680;28;20808;-59
2022/12/14 12:42:12;;;;;;;28.73;26.00;;;9.50;46.30;;;;;;6140752;28;20471;-59
2022/12/14 12:45:20;;;;;;;26.07;17.90;;;9.60;46.40;;;;;;6143334;28;20786;-58
2022/12/14 12:48:28;;;;;;;20.67;18.17;;;9.20;46.80;;;;;;6143121;28;21027;-59
2022/12/14 12:51:41;;;;;;;22.10;19.80;;;9.40;46.70;;;;;;6149760;28;20467;-59
2022/12/14 12:54:53;;;;;;;29.10;26.00;;;9.40;46.20;;;;;;6147381;28;20478;-59
2022/12/14 12:58:02;;;;;;;25.60;20.70;;;8.80;47.50;;;;;;6143047;28;20495;-58
2022/12/14 13:01:17;;;;;;;21.60;19.30;;;8.70;47.90;;;;;;6132810;28;20544;-58
2022/12/14 13:04:28;;;;;;;19.73;17.13;;;7.80;49.00;;;;;;6137371;28;20476;-58
2022/12/14 13:07:37;;;;;;;20.93;16.83;;;7.10;50.50;;;;;;6136820;28;20472;-58
2022/12/14 13:10:42;;;;;;;20.77;16.93;;;6.60;52.30;;;;;;6143702;28;20455;-58
2022/12/14 13:14:17;;;;;;;20.63;17.53;;;6.20;53.70;;;;;;6133151;28;20943;-59
2022/12/14 13:17:29;;;;;;;24.00;20.17;;;6.00;54.90;;;;;;6136234;28;20461;-59
2022/12/14 13:20:34;;;;;;;24.07;20.50;;;6.10;55.20;;;;;;6136721;28;20558;-59
2022/12/14 13:23:37;;;;;;;18.83;16.83;;;6.20;55.20;;;;;;6129541;28;20471;-59
2022/12/14 13:27:16;;;;;;;22.40;16.50;;;6.10;55.50;;;;;;6129575;28;20472;-60
2022/12/14 13:30:32;;;;;;;21.70;17.53;;;6.10;55.80;;;;;;6129456;28;20511;-59
2022/12/14 13:33:53;;;;;;;21.00;17.23;;;5.90;55.90;;;;;;6152136;28;20475;-59
2022/12/14 13:37:30;;;;;;;20.87;17.50;;;5.80;56.40;;;;;;6153210;28;20486;-59
2022/12/14 13:40:52;;;;;;;22.73;17.47;;;5.60;57.00;;;;;;6152978;28;20778;-59
2022/12/14 13:44:25;;;;;;;21.47;16.37;;;5.60;57.00;;;;;;6153156;28;20463;-59
2022/12/14 13:47:43;;;;;;;22.87;15.80;;;5.50;57.70;;;;;;6152703;28;20991;-59
2022/12/14 13:50:55;;;;;;;23.40;17.50;;;5.20;58.30;;;;;;6153148;28;20545;-59
2022/12/14 13:54:07;;;;;;;21.30;17.90;;;4.90;59.50;;;;;;6152572;28;20476;-59
2022/12/14 13:57:15;;;;;;;21.77;18.10;;;4.50;60.90;;;;;;6174027;28;20473;-59
2022/12/14 14:00:50;;;;;;;26.00;17.93;;;4.30;62.10;;;;;;6176715;28;20470;-60
2022/12/14 14:04:17;;;;;;;21.43;17.20;;;4.20;63.40;;;;;;6168924;28;20482;-60
2022/12/14 14:07:38;;;;;;;21.67;17.77;;;3.80;64.90;;;;;;6169500;28;20630;-60
2022/12/14 14:10:41;;;;;;;23.67;17.37;;;3.30;67.30;;;;;;6151856;28;20467;-58
2022/12/14 14:14:03;;;;;;;21.93;16.83;;;2.90;69.40;;;;;;6165525;28;20462;-59
2022/12/14 14:17:13;;;;;;;19.50;15.50;;;2.80;70.90;;;;;;6173871;28;20540;-60
2022/12/14 14:20:36;;;;;;;23.47;17.97;;;2.70;72.10;;;;;;6152335;28;20483;-60
2022/12/14 14:23:54;;;;;;;22.70;17.73;;;2.60;73.50;;;;;;6151872;28;20545;-61
2022/12/14 14:27:00;;;;;;;20.83;17.33;;;2.60;74.60;;;;;;6152181;28;20501;-61
2022/12/14 14:30:05;;;;;;;24.07;17.73;;;2.50;75.20;;;;;;6150999;28;20569;-59
2022/12/14 14:33:29;;;;;;;26.80;18.50;;;2.40;76.50;;;;;;6151656;28;20479;-59
2022/12/14 14:36:52;;;;;;;20.93;15.80;;;2.10;78.70;;;;;;6152108;28;20483;-59
2022/12/14 14:40:25;;;;;;;20.97;17.20;;;1.90;80.00;;;;;;6151427;28;20545;-59
2022/12/14 14:43:52;;;;;;;24.33;17.80;;;1.90;80.90;;;;;;6151500;28;20510;-58
2022/12/14 14:46:57;;;;;;;21.93;17.60;;;2.00;81.60;;;;;;6152064;28;20463;-58
2022/12/14 14:50:03;;;;;;;21.57;15.97;;;1.90;82.40;;;;;;6152045;28;20484;-58
2022/12/14 14:53:28;;;;;;;26.00;19.37;;;1.80;83.50;;;;;;6151738;28;20475;-58
2022/12/14 14:56:36;;;;;;;30.83;21.17;;;1.70;84.50;;;;;;6167639;28;20489;-58
2022/12/14 15:00:00;;;;;;;31.20;19.90;;;1.70;85.60;;;;;;6175477;28;20813;-58
2022/12/14 15:03:06;;;;;;;26.40;19.17;;;1.60;86.40;;;;;;6175791;28;20478;-58
2022/12/14 15:06:14;;;;;;;49.43;30.60;;;1.60;87.70;;;;;;6161866;28;20567;-58
2022/12/14 15:09:24;;;;;;;47.40;32.90;;;1.60;88.10;;;;;;6151501;28;20552;-58
2022/12/14 15:12:34;;;;;;;26.33;19.70;;;1.60;88.90;;;;;;6151368;28;20788;-59
2022/12/14 15:15:42;;;;;;;29.30;20.60;;;1.60;89.00;;;;;;6151609;28;20490;-58
2022/12/14 15:18:46;;;;;;;25.20;18.60;;;1.50;89.50;;;;;;6147755;28;20493;-58
2022/12/14 15:21:51;;;;;;;24.53;18.93;;;1.40;90.00;;;;;;6151492;28;20812;-58
2022/12/14 15:24:58;;;;;;;25.77;20.53;;;1.40;90.20;;;;;;6153541;28;20475;-59
2022/12/14 15:28:05;;;;;;;29.00;19.47;;;1.40;90.40;;;;;;6156012;28;21009;-59
2022/12/14 15:31:08;;;;;;;27.40;18.97;;;1.40;90.70;;;;;;6156662;28;20487;-59
2022/12/14 15:34:16;;;;;;;27.90;20.17;;;1.30;91.00;;;;;;6155583;28;20481;-58
2022/12/14 15:37:26;;;;;;;26.80;19.40;;;1.20;91.40;;;;;;6155618;28;20494;-58
2022/12/14 15:40:32;;;;;;;27.23;20.93;;;1.20;91.70;;;;;;6155388;28;20558;-59
2022/12/14 15:43:35;;;;;;;26.67;20.97;;;1.20;91.80;;;;;;6155174;28;20939;-59
2022/12/14 15:46:40;;;;;;;29.13;19.93;;;1.20;91.90;;;;;;6155875;28;20439;-59
2022/12/14 15:49:43;;;;;;;23.10;18.90;;;1.10;92.30;;;;;;6155653;28;20451;-59
2022/12/14 15:52:47;;;;;;;25.93;19.20;;;1.10;92.40;;;;;;6155018;28;20470;-60
2022/12/14 15:55:52;;;;;;;26.60;21.37;;;1.00;92.70;;;;;;6165777;28;20866;-60
2022/12/14 15:59:07;;;;;;;28.20;19.07;;;1.00;92.90;;;;;;6180028;28;20514;-60
2022/12/14 16:02:21;;;;;;;25.43;18.10;;;1.10;93.00;;;;;;6179608;28;20473;-60
2022/12/14 16:05:35;;;;;;;25.93;19.80;;;1.10;93.10;;;;;;6179640;28;20474;-61
2022/12/14 16:08:46;;;;;;;26.40;19.67;;;1.10;93.00;;;;;;6179414;28;20519;-60
2022/12/14 16:11:54;;;;;;;31.10;20.77;;;1.10;93.10;;;;;;6179080;28;20477;-60
2022/12/14 16:14:59;;;;;;;30.00;19.63;;;1.00;93.10;;;;;;6178906;28;20474;-60
2022/12/14 16:18:03;;;;;;;29.53;21.93;;;1.10;93.20;;;;;;6178763;28;20471;-60